createdAt,value
2022-10-20T00:00:19.113Z,100239.22
2022-10-20T00:01:51.095Z,100234.19
2022-10-20T00:03:23.702Z,100242.94
2022-10-20T00:04:55.883Z,100233.47
2022-10-20T00:06:30.320Z,100237.94
2022-10-20T00:08:02.564Z,100242.84
2022-10-20T00:09:34.584Z,100247.97
2022-10-20T00:11:07.872Z,100242.53
2022-10-20T00:12:39.966Z,100238.94
2022-10-20T00:14:12.019Z,100242.47
2022-10-20T00:15:50.143Z,100239.88
2022-10-20T00:17:22.113Z,100238.16
2022-10-20T00:18:55.688Z,100238.09
2022-10-20T00:20:27.755Z,100241.78
2022-10-20T00:22:00.468Z,100241.78
2022-10-20T00:23:32.392Z,100244.44
2022-10-20T00:25:04.660Z,100243.63
2022-10-20T00:26:36.673Z,100242.03
2022-10-20T00:28:08.716Z,100243.81
2022-10-20T00:29:40.734Z,100237.06
2022-10-20T00:31:13.448Z,100248.34
2022-10-20T00:32:48.026Z,100242.31
2022-10-20T00:34:20.063Z,100245.19
2022-10-20T00:35:52.075Z,100247.84
2022-10-20T00:37:24.345Z,100240.13
2022-10-20T00:39:00.977Z,100245.22
2022-10-20T00:40:33.062Z,100251.47
2022-10-20T00:42:06.300Z,100238.56
2022-10-20T00:43:49.366Z,100240.28
2022-10-20T00:45:22.712Z,100241.22
2022-10-20T00:46:54.478Z,100242.94
2022-10-20T00:48:28.740Z,100237.81
2022-10-20T00:50:22.813Z,100239.69
2022-10-20T00:51:55.265Z,100236.47
2022-10-20T00:53:29.248Z,100233.06
2022-10-20T00:55:02.095Z,100229.69
2022-10-20T00:56:34.419Z,100230.69
2022-10-20T00:58:06.652Z,100233.41
2022-10-20T00:59:39.370Z,100235.22
2022-10-20T01:01:12.748Z,100236.97
2022-10-20T01:02:44.905Z,100233.34
2022-10-20T01:04:17.221Z,100236.16
2022-10-20T01:05:51.934Z,100234.41
2022-10-20T01:07:24.023Z,100230.94
2022-10-20T01:08:56.135Z,100238.88
2022-10-20T01:10:33.058Z,100242.28
2022-10-20T01:12:22.123Z,100245.88
2022-10-20T01:13:59.990Z,100243.59
2022-10-20T01:15:55.542Z,100248.25
2022-10-20T01:17:37.168Z,100249.41
2022-10-20T01:19:24.823Z,100246.19
2022-10-20T01:21:41.724Z,100251.75
2022-10-20T01:23:50.870Z,100250.44
2022-10-20T01:25:41.331Z,100258.66
2022-10-20T01:27:17.376Z,100262.69
2022-10-20T01:29:10.168Z,100257.78
2022-10-20T01:30:46.738Z,100252.22
2022-10-20T01:32:39.213Z,100263.59
2022-10-20T01:34:39.606Z,100265.63
2022-10-20T01:36:19.286Z,100274.56
2022-10-20T01:38:00.805Z,100264.34
2022-10-20T01:39:46.658Z,100263.69
2022-10-20T01:41:23.701Z,100268.25
2022-10-20T01:42:59.169Z,100267.63
2022-10-20T01:44:32.387Z,100268.75
2022-10-20T01:46:05.063Z,100278.44
2022-10-20T01:47:38.032Z,100275.09
2022-10-20T01:49:10.569Z,100268.38
2022-10-20T01:50:42.914Z,100272.78
2022-10-20T01:52:15.003Z,100272.03
2022-10-20T01:53:46.980Z,100266.84
2022-10-20T01:55:19.036Z,100270.38
2022-10-20T01:57:27.912Z,100273.59
2022-10-20T01:58:59.903Z,100281.47
2022-10-20T02:00:32.396Z,100280.31
2022-10-20T02:02:31.814Z,100279.88
2022-10-20T02:04:05.673Z,100277.00
2022-10-20T02:06:02.022Z,100279.19
2022-10-20T02:07:34.366Z,100278.16
2022-10-20T02:09:09.727Z,100279.66
2022-10-20T02:10:49.215Z,100287.22
2022-10-20T02:12:28.325Z,100280.13
2022-10-20T02:14:00.364Z,100284.44
2022-10-20T02:15:33.226Z,100286.00
2022-10-20T02:17:08.432Z,100282.41
2022-10-20T02:18:45.864Z,100279.66
2022-10-20T02:20:17.963Z,100286.50
2022-10-20T02:21:52.556Z,100269.88
2022-10-20T02:23:24.677Z,100274.97
2022-10-20T02:24:56.645Z,100280.13
2022-10-20T02:26:31.009Z,100272.25
2022-10-20T02:28:04.035Z,100281.66
2022-10-20T02:31:09.955Z,100279.69
2022-10-20T02:32:44.390Z,100279.44
2022-10-20T02:34:16.617Z,100282.75
2022-10-20T02:35:56.987Z,100280.59
2022-10-20T02:37:29.003Z,100280.53
2022-10-20T02:39:01.015Z,100282.16
2022-10-20T02:40:33.144Z,100284.66
2022-10-20T02:42:05.559Z,100285.50
2022-10-20T02:43:37.624Z,100290.66
2022-10-20T02:45:12.804Z,100278.44
2022-10-20T02:46:44.833Z,100284.28
2022-10-20T02:48:16.764Z,100294.59
2022-10-20T02:49:49.284Z,100286.53
2022-10-20T02:51:21.384Z,100291.75
2022-10-20T02:52:53.500Z,100286.38
2022-10-20T02:54:27.785Z,100293.25
2022-10-20T02:56:00.130Z,100297.63
2022-10-20T02:57:32.153Z,100294.41
2022-10-20T02:59:04.144Z,100296.16
2022-10-20T03:00:36.138Z,100305.69
2022-10-20T03:02:08.106Z,100303.19
2022-10-20T03:03:40.256Z,100310.94
2022-10-20T03:05:12.342Z,100311.84
2022-10-20T03:06:44.431Z,100305.97
2022-10-20T03:08:16.526Z,100311.19
2022-10-20T03:09:49.253Z,100321.69
2022-10-20T03:11:21.264Z,100324.22
2022-10-20T03:12:55.931Z,100327.72
2022-10-20T03:14:28.063Z,100328.72
2022-10-20T03:16:01.803Z,100328.72
2022-10-20T03:17:34.129Z,100336.59
2022-10-20T03:19:09.107Z,100327.13
2022-10-20T03:20:44.845Z,100342.03
2022-10-20T03:22:16.692Z,100338.44
2022-10-20T03:23:49.169Z,100339.41
2022-10-20T03:25:21.157Z,100341.31
2022-10-20T03:26:53.301Z,100341.41
2022-10-20T03:29:58.145Z,100338.25
2022-10-20T03:31:30.570Z,100350.63
2022-10-20T03:33:02.580Z,100352.63
2022-10-20T03:34:34.581Z,100346.75
2022-10-20T03:36:06.738Z,100365.19
2022-10-20T03:37:38.769Z,100357.59
2022-10-20T03:39:10.773Z,100359.41
2022-10-20T03:40:42.755Z,100356.97
2022-10-20T03:42:15.298Z,100364.06
2022-10-20T03:43:47.343Z,100364.22
2022-10-20T03:45:19.365Z,100361.75
2022-10-20T03:46:51.335Z,100364.56
2022-10-20T03:48:23.308Z,100373.41
2022-10-20T03:49:55.343Z,100367.50
2022-10-20T03:51:27.410Z,100371.13
2022-10-20T03:52:59.649Z,100371.38
2022-10-20T03:54:32.020Z,100374.19
2022-10-20T03:56:08.387Z,100375.19
2022-10-20T03:57:43.471Z,100387.50
2022-10-20T03:59:15.470Z,100384.28
2022-10-20T04:00:48.257Z,100384.41
2022-10-20T04:02:36.309Z,100383.66
2022-10-20T04:04:11.876Z,100389.91
2022-10-20T04:05:43.922Z,100385.75
2022-10-20T04:07:15.977Z,100387.66
2022-10-20T04:08:47.998Z,100386.06
2022-10-20T04:10:20.102Z,100384.44
2022-10-20T04:11:52.103Z,100389.75
2022-10-20T04:13:24.153Z,100390.75
2022-10-20T04:14:56.167Z,100392.63
2022-10-20T04:16:28.160Z,100382.38
2022-10-20T04:18:00.188Z,100391.09
2022-10-20T04:19:32.189Z,100390.41
2022-10-20T04:21:04.345Z,100385.25
2022-10-20T04:22:36.631Z,100388.88
2022-10-20T04:24:08.909Z,100395.06
2022-10-20T04:25:45.927Z,100386.47
2022-10-20T04:27:17.929Z,100387.50
2022-10-20T04:28:50.036Z,100392.75
2022-10-20T04:30:22.051Z,100387.63
2022-10-20T04:31:56.520Z,100385.97
2022-10-20T04:33:28.525Z,100395.59
2022-10-20T04:35:00.561Z,100380.06
2022-10-20T04:36:32.655Z,100387.94
2022-10-20T04:38:05.089Z,100396.63
2022-10-20T04:39:37.190Z,100385.50
2022-10-20T04:41:10.782Z,100388.16
2022-10-20T04:42:42.798Z,100389.03
2022-10-20T04:44:15.720Z,100393.34
2022-10-20T04:45:47.728Z,100390.78
2022-10-20T04:47:22.851Z,100398.63
2022-10-20T04:48:54.916Z,100395.22
2022-10-20T04:50:27.109Z,100389.25
2022-10-20T04:52:01.153Z,100398.84
2022-10-20T04:53:34.693Z,100399.75
2022-10-20T04:55:07.073Z,100399.00
2022-10-20T04:56:39.187Z,100406.84
2022-10-20T04:59:44.378Z,100410.41
2022-10-20T05:01:16.806Z,100409.66
2022-10-20T05:02:48.822Z,100407.09
2022-10-20T05:04:23.474Z,100414.88
2022-10-20T05:05:55.537Z,100414.88
2022-10-20T05:07:30.791Z,100422.63
2022-10-20T05:09:05.537Z,100423.50
2022-10-20T05:10:37.601Z,100421.81
2022-10-20T05:12:09.795Z,100419.22
2022-10-20T05:13:42.721Z,100435.59
2022-10-20T05:15:14.905Z,100428.69
2022-10-20T05:16:46.948Z,100427.00
2022-10-20T05:18:19.045Z,100433.88
2022-10-20T05:19:51.132Z,100433.03
2022-10-20T05:21:26.632Z,100444.22
2022-10-20T05:22:58.727Z,100439.06
2022-10-20T05:24:30.946Z,100443.31
2022-10-20T05:26:04.498Z,100448.44
2022-10-20T05:27:36.505Z,100447.56
2022-10-20T05:29:10.626Z,100443.19
2022-10-20T05:32:34.810Z,100456.03
2022-10-20T05:34:10.404Z,100461.16
2022-10-20T05:35:42.394Z,100453.31
2022-10-20T05:37:14.858Z,100457.66
2022-10-20T05:38:48.214Z,100455.91
2022-10-20T05:40:20.236Z,100458.56
2022-10-20T05:41:52.239Z,100462.91
2022-10-20T05:43:24.298Z,100467.19
2022-10-20T05:44:56.636Z,100465.41
2022-10-20T05:46:30.870Z,100485.22
2022-10-20T05:48:02.925Z,100480.03
2022-10-20T05:49:34.996Z,100483.44
2022-10-20T05:51:27.746Z,100475.53
2022-10-20T05:53:00.365Z,100480.63
2022-10-20T05:54:32.510Z,100490.00
2022-10-20T05:56:06.285Z,100485.50
2022-10-20T05:57:38.426Z,100486.22
2022-10-20T05:59:11.302Z,100492.09
2022-10-20T06:00:52.431Z,100491.13
2022-10-20T06:02:24.555Z,100502.19
2022-10-20T06:04:00.686Z,100494.16
2022-10-20T06:05:32.751Z,100507.94
2022-10-20T06:07:10.303Z,100502.50
2022-10-20T06:08:42.639Z,100511.03
2022-10-20T06:10:14.760Z,100510.03
2022-10-20T06:11:50.105Z,100517.69
2022-10-20T06:13:22.202Z,100521.91
2022-10-20T06:14:54.316Z,100519.16
2022-10-20T06:16:27.475Z,100520.75
2022-10-20T06:17:59.491Z,100526.66
2022-10-20T06:19:31.749Z,100533.38
2022-10-20T06:21:06.908Z,100538.41
2022-10-20T06:22:39.205Z,100537.47
2022-10-20T06:24:12.287Z,100540.84
2022-10-20T06:25:44.303Z,100539.06
2022-10-20T06:29:04.447Z,100542.44
2022-10-20T06:30:36.897Z,100547.59
2022-10-20T06:32:09.130Z,100547.47
2022-10-20T06:33:41.632Z,100554.28
2022-10-20T06:35:13.970Z,100549.03
2022-10-20T06:36:46.626Z,100560.09
2022-10-20T06:38:19.312Z,100560.81
2022-10-20T06:39:51.577Z,100563.25
2022-10-20T06:41:24.272Z,100563.03
2022-10-20T06:42:56.822Z,100555.94
2022-10-20T06:44:29.225Z,100563.47
2022-10-20T06:46:03.622Z,100565.78
2022-10-20T06:47:36.119Z,100566.38
2022-10-20T06:49:08.697Z,100560.06
2022-10-20T06:50:40.633Z,100563.22
2022-10-20T06:52:12.756Z,100571.69
2022-10-20T06:53:46.704Z,100567.91
2022-10-20T06:55:19.455Z,100561.59
2022-10-20T06:56:52.233Z,100567.44
2022-10-20T06:58:24.453Z,100569.03
2022-10-20T06:59:56.593Z,100566.16
2022-10-20T07:01:31.585Z,100568.50
2022-10-20T07:04:40.966Z,100573.28
2022-10-20T07:06:21.347Z,100564.16
2022-10-20T07:07:53.946Z,100576.25
2022-10-20T07:09:26.150Z,100570.00
2022-10-20T07:11:18.410Z,100578.38
2022-10-20T07:12:50.552Z,100574.69
2022-10-20T07:14:22.846Z,100572.78
2022-10-20T07:15:55.902Z,100557.84
2022-10-20T07:17:28.336Z,100563.75
2022-10-20T07:19:01.482Z,100567.03
2022-10-20T07:20:34.298Z,100563.47
2022-10-20T07:22:06.498Z,100563.44
2022-10-20T07:23:38.790Z,100558.09
2022-10-20T07:25:11.086Z,100556.25
2022-10-20T07:26:43.536Z,100561.28
2022-10-20T07:28:15.685Z,100556.78
2022-10-20T07:29:48.173Z,100556.59
2022-10-20T07:31:23.512Z,100559.69
2022-10-20T07:32:55.790Z,100552.53
2022-10-20T07:34:28.287Z,100555.72
2022-10-20T07:36:00.649Z,100555.44
2022-10-20T07:37:32.919Z,100551.81
2022-10-20T07:39:07.193Z,100555.13
2022-10-20T07:40:39.475Z,100545.34
2022-10-20T07:42:11.814Z,100554.56
2022-10-20T07:43:44.361Z,100553.44
2022-10-20T07:45:16.714Z,100558.25
2022-10-20T07:46:49.214Z,100559.03
2022-10-20T07:48:21.615Z,100561.75
2022-10-20T07:49:53.775Z,100551.94
2022-10-20T07:51:29.310Z,100556.34
2022-10-20T07:53:01.734Z,100556.38
2022-10-20T07:54:34.378Z,100561.78
2022-10-20T07:56:07.178Z,100564.28
2022-10-20T07:57:39.272Z,100553.00
2022-10-20T07:59:12.049Z,100559.91
2022-10-20T08:00:44.174Z,100559.13
2022-10-20T08:02:16.745Z,100565.38
2022-10-20T08:03:48.902Z,100562.75
2022-10-20T08:05:21.047Z,100562.97
2022-10-20T08:06:53.300Z,100571.78
2022-10-20T08:08:25.956Z,100564.16
2022-10-20T08:09:58.259Z,100562.44
2022-10-20T08:11:30.570Z,100566.97
2022-10-20T08:13:02.654Z,100562.63
2022-10-20T08:14:36.646Z,100558.50
2022-10-20T08:16:13.579Z,100556.00
2022-10-20T08:17:45.615Z,100552.88
2022-10-20T08:19:30.439Z,100550.41
2022-10-20T08:21:24.974Z,100557.66
2022-10-20T08:22:57.038Z,100556.84
2022-10-20T08:24:29.030Z,100556.84
2022-10-20T08:26:01.125Z,100570.00
2022-10-20T08:27:33.212Z,100555.03
2022-10-20T08:29:05.315Z,100550.59
2022-10-20T08:30:37.781Z,100553.09
2022-10-20T08:32:11.009Z,100549.69
2022-10-20T08:33:43.573Z,100558.34
2022-10-20T08:35:16.387Z,100550.44
2022-10-20T08:36:48.733Z,100551.94
2022-10-20T08:38:20.959Z,100560.56
2022-10-20T08:39:53.264Z,100556.13
2022-10-20T08:41:43.405Z,100559.44
2022-10-20T08:43:25.991Z,100557.03
2022-10-20T08:45:00.322Z,100554.31
2022-10-20T08:46:38.039Z,100555.91
2022-10-20T08:48:16.604Z,100558.50
2022-10-20T08:49:48.933Z,100555.78
2022-10-20T08:51:27.985Z,100564.31
2022-10-20T08:53:01.368Z,100563.41
2022-10-20T08:54:33.310Z,100566.59
2022-10-20T08:56:05.960Z,100565.84
2022-10-20T08:57:38.443Z,100568.53
2022-10-20T08:59:39.236Z,100568.25
2022-10-20T09:01:23.439Z,100567.25
2022-10-20T09:02:56.509Z,100562.88
2022-10-20T09:04:38.516Z,100569.69
2022-10-20T09:06:15.791Z,100564.59
2022-10-20T09:07:51.847Z,100565.50
2022-10-20T09:09:25.212Z,100563.72
2022-10-20T09:10:57.396Z,100574.00
2022-10-20T09:12:31.140Z,100573.19
2022-10-20T09:14:03.510Z,100569.59
2022-10-20T09:15:35.909Z,100571.38
2022-10-20T09:17:15.532Z,100567.59
2022-10-20T09:18:52.752Z,100569.09
2022-10-20T09:20:35.554Z,100564.59
2022-10-20T09:22:08.053Z,100565.44
2022-10-20T09:23:42.913Z,100566.09
2022-10-20T09:25:17.559Z,100571.22
2022-10-20T09:26:58.557Z,100572.09
2022-10-20T09:28:42.937Z,100568.59
2022-10-20T09:30:36.564Z,100577.81
2022-10-20T09:34:26.883Z,100579.03
2022-10-20T09:36:19.194Z,100570.94
2022-10-20T09:38:04.755Z,100577.03
2022-10-20T09:39:55.105Z,100573.19
2022-10-20T09:41:31.110Z,100572.06
2022-10-20T09:43:17.120Z,100570.25
2022-10-20T09:44:56.300Z,100566.78
2022-10-20T09:46:37.682Z,100565.00
2022-10-20T09:48:22.063Z,100572.91
2022-10-20T09:50:01.183Z,100568.53
2022-10-20T09:51:33.993Z,100567.56
2022-10-20T09:53:16.460Z,100559.28
2022-10-20T09:54:50.891Z,100562.50
2022-10-20T09:56:40.626Z,100568.09
2022-10-20T09:58:38.274Z,100558.09
2022-10-20T10:00:36.342Z,100549.84
2022-10-20T10:02:15.973Z,100546.59
2022-10-20T10:03:52.221Z,100552.44
2022-10-20T10:05:33.834Z,100557.31
2022-10-20T10:07:25.796Z,100549.69
2022-10-20T10:09:00.167Z,100558.16
2022-10-20T10:10:32.755Z,100554.81
2022-10-20T10:12:15.481Z,100549.22
2022-10-20T10:13:49.883Z,100556.25
2022-10-20T10:15:31.312Z,100554.28
2022-10-20T10:17:03.735Z,100549.38
2022-10-20T10:18:36.811Z,100541.03
2022-10-20T10:20:12.030Z,100550.81
2022-10-20T10:21:52.471Z,100549.38
2022-10-20T10:23:30.160Z,100543.53
2022-10-20T10:25:03.022Z,100548.59
2022-10-20T10:26:38.391Z,100536.03
2022-10-20T10:28:32.262Z,100538.22
2022-10-20T10:30:28.447Z,100537.09
2022-10-20T10:32:13.831Z,100533.41
2022-10-20T10:33:46.720Z,100518.84
2022-10-20T10:35:33.774Z,100528.22
2022-10-20T10:37:06.212Z,100527.44
2022-10-20T10:38:39.980Z,100524.09
2022-10-20T10:40:20.684Z,100516.22
2022-10-20T10:42:17.389Z,100520.66
2022-10-20T10:44:07.344Z,100525.22
2022-10-20T10:45:53.390Z,100514.19
2022-10-20T10:47:28.271Z,100515.94
2022-10-20T10:49:23.402Z,100514.31
2022-10-20T10:50:59.728Z,100510.25
2022-10-20T10:52:45.570Z,100512.03
2022-10-20T10:54:50.297Z,100504.22
2022-10-20T10:56:44.100Z,100501.34
2022-10-20T10:58:48.338Z,100502.44
2022-10-20T11:00:57.980Z,100502.59
2022-10-20T11:02:58.270Z,100496.56
2022-10-20T11:04:40.465Z,100499.97
2022-10-20T11:06:19.708Z,100493.66
2022-10-20T11:08:08.376Z,100492.25
2022-10-20T11:10:01.840Z,100490.91
2022-10-20T11:12:01.614Z,100487.13
2022-10-20T11:14:10.308Z,100488.41
2022-10-20T11:16:23.714Z,100487.22
2022-10-20T11:18:08.266Z,100481.81
2022-10-20T11:19:46.580Z,100481.16
2022-10-20T11:21:37.510Z,100478.81
2022-10-20T11:23:47.323Z,100474.97
2022-10-20T11:25:31.803Z,100474.81
2022-10-20T11:27:11.095Z,100472.69
2022-10-20T11:28:46.225Z,100480.84
2022-10-20T11:30:21.901Z,100473.91
2022-10-20T11:32:27.198Z,100476.53
2022-10-20T11:34:10.667Z,100476.94
2022-10-20T11:35:57.909Z,100471.31
2022-10-20T11:37:33.719Z,100469.41
2022-10-20T11:39:07.263Z,100462.34
2022-10-20T11:40:41.597Z,100463.84
2022-10-20T11:42:26.757Z,100478.38
2022-10-20T11:44:16.689Z,100465.81
2022-10-20T11:47:36.871Z,100468.69
2022-10-20T11:49:12.514Z,100465.22
2022-10-20T11:50:57.200Z,100462.34
2022-10-20T11:53:01.087Z,100461.75
2022-10-20T11:54:45.463Z,100459.88
2022-10-20T11:56:45.156Z,100458.94
2022-10-20T11:58:36.547Z,100451.34
2022-10-20T12:00:28.080Z,100451.97
2022-10-20T12:02:30.103Z,100452.19
2022-10-20T12:04:26.893Z,100449.16
2022-10-20T12:06:20.269Z,100453.94
2022-10-20T12:08:46.841Z,100456.94
2022-10-20T12:11:07.082Z,100454.66
2022-10-20T12:13:01.609Z,100458.84
2022-10-20T12:14:40.983Z,100456.28
2022-10-20T12:16:13.196Z,100454.81
2022-10-20T12:17:47.060Z,100454.72
2022-10-20T12:19:24.259Z,100454.53
2022-10-20T12:21:06.494Z,100453.16
2022-10-20T12:22:41.334Z,100453.63
2022-10-20T12:24:35.142Z,100460.44
2022-10-20T12:26:30.527Z,100455.66
2022-10-20T12:28:23.737Z,100445.72
2022-10-20T12:30:38.755Z,100442.53
2022-10-20T12:32:25.611Z,100443.16
2022-10-20T12:34:04.318Z,100434.31
2022-10-20T12:36:15.341Z,100438.06
2022-10-20T12:37:58.890Z,100440.44
2022-10-20T12:39:31.204Z,100440.81
2022-10-20T12:41:04.631Z,100443.84
2022-10-20T12:42:40.432Z,100444.69
2022-10-20T12:44:17.527Z,100439.97
2022-10-20T12:45:51.042Z,100433.09
2022-10-20T12:47:26.466Z,100434.88
2022-10-20T12:49:01.724Z,100435.72
2022-10-20T12:50:37.613Z,100437.19
2022-10-20T12:52:20.347Z,100437.72
2022-10-20T12:54:29.903Z,100443.38
2022-10-20T12:56:08.927Z,100439.81
2022-10-20T12:57:45.748Z,100451.91
2022-10-20T12:59:30.298Z,100441.19
2022-10-20T13:01:12.807Z,100450.75
2022-10-20T13:02:56.331Z,100452.59
2022-10-20T13:04:55.071Z,100459.88
2022-10-20T13:06:27.378Z,100452.91
2022-10-20T13:08:00.893Z,100450.72
2022-10-20T13:10:01.708Z,100449.97
2022-10-20T13:11:36.492Z,100448.88
2022-10-20T13:13:08.611Z,100449.19
2022-10-20T13:14:49.819Z,100449.34
2022-10-20T13:16:22.261Z,100447.28
2022-10-20T13:18:02.044Z,100445.88
2022-10-20T13:20:01.431Z,100445.78
2022-10-20T13:21:35.014Z,100437.75
2022-10-20T13:23:12.836Z,100454.97
2022-10-20T13:24:45.459Z,100448.09
2022-10-20T13:26:32.685Z,100443.84
2022-10-20T13:28:15.350Z,100446.63
2022-10-20T13:29:47.775Z,100445.78
2022-10-20T13:31:26.358Z,100450.03
2022-10-20T13:33:44.858Z,100446.88
2022-10-20T13:35:40.014Z,100445.78
2022-10-20T13:37:34.296Z,100451.91
2022-10-20T13:39:17.454Z,100453.75
2022-10-20T13:42:57.654Z,100452.03
2022-10-20T13:44:40.871Z,100454.66
2022-10-20T13:46:13.231Z,100459.94
2022-10-20T13:48:13.919Z,100459.41
2022-10-20T13:50:14.238Z,100458.63
2022-10-20T13:51:52.750Z,100460.34
2022-10-20T13:53:29.154Z,100461.44
2022-10-20T13:55:01.865Z,100469.47
2022-10-20T13:56:37.114Z,100463.53
2022-10-20T13:58:18.924Z,100462.13
2022-10-20T14:00:02.746Z,100459.78
2022-10-20T14:01:36.861Z,100464.44
2022-10-20T14:03:18.543Z,100460.25
2022-10-20T14:05:02.915Z,100458.59
2022-10-20T14:06:37.834Z,100458.03
2022-10-20T14:08:11.897Z,100467.56
2022-10-20T14:09:47.447Z,100470.41
2022-10-20T14:11:22.013Z,100466.16
2022-10-20T14:12:55.607Z,100467.88
2022-10-20T14:14:30.100Z,100461.66
2022-10-20T14:16:06.151Z,100463.75
2022-10-20T14:17:40.804Z,100463.22
2022-10-20T14:19:14.124Z,100467.69
2022-10-20T14:21:00.461Z,100466.69
2022-10-20T14:22:32.866Z,100466.91
2022-10-20T14:24:05.460Z,100474.66
2022-10-20T14:25:38.058Z,100468.53
2022-10-20T14:27:22.090Z,100464.19
2022-10-20T14:28:54.849Z,100476.00
2022-10-20T14:30:27.473Z,100468.97
2022-10-20T14:32:00.218Z,100471.75
2022-10-20T16:50:13.537Z,100585.81
2022-10-20T16:51:45.597Z,100583.38
2022-10-20T16:53:17.826Z,100591.31
2022-10-20T16:54:49.855Z,100597.47
2022-10-20T16:56:22.484Z,100596.75
2022-10-20T16:57:56.177Z,100594.22
2022-10-20T16:59:28.600Z,100596.00
2022-10-20T17:01:09.997Z,100597.75
2022-10-20T17:02:44.428Z,100595.25
2022-10-20T17:04:16.841Z,100599.66
2022-10-20T17:05:55.905Z,100604.06
2022-10-20T17:07:28.105Z,100610.16
2022-10-20T17:09:00.687Z,100602.41
2022-10-20T17:10:33.007Z,100605.94
2022-10-20T17:12:05.773Z,100603.34
2022-10-20T17:13:39.058Z,100611.97
2022-10-20T17:15:11.625Z,100606.84
2022-10-20T17:16:44.052Z,100608.66
2022-10-20T17:18:16.408Z,100606.97
2022-10-20T17:19:48.853Z,100609.63
2022-10-20T17:21:21.096Z,100610.59
2022-10-20T17:22:56.455Z,100609.72
2022-10-20T17:24:28.668Z,100613.25
2022-10-20T17:26:02.609Z,100603.78
2022-10-20T17:27:35.264Z,100615.94
2022-10-20T17:29:09.945Z,100604.75
2022-10-20T17:30:43.289Z,100619.53
2022-10-20T17:32:18.140Z,100613.53
2022-10-20T17:33:55.248Z,100616.16
2022-10-20T17:35:29.488Z,100604.97
2022-10-20T17:37:01.756Z,100611.94
2022-10-20T17:38:34.281Z,100614.56
2022-10-20T17:40:07.425Z,100612.88
2022-10-20T17:41:40.132Z,100623.28
2022-10-20T17:43:12.369Z,100614.66
2022-10-20T17:44:44.467Z,100617.28
2022-10-20T17:46:18.144Z,100620.75
2022-10-20T17:47:51.612Z,100620.78
2022-10-20T17:49:23.521Z,100622.50
2022-10-20T17:51:03.611Z,100622.50
2022-10-20T17:52:36.051Z,100624.25
2022-10-20T17:54:08.245Z,100621.69
2022-10-20T17:55:40.303Z,100624.28
2022-10-20T17:57:12.374Z,100623.44
2022-10-20T17:58:45.667Z,100619.16
2022-10-20T18:00:26.868Z,100629.50
2022-10-20T18:02:10.566Z,100630.38
2022-10-20T18:03:43.150Z,100628.69
2022-10-20T18:05:15.789Z,100630.44
2022-10-20T18:06:48.330Z,100633.91
2022-10-20T18:08:20.368Z,100631.31
2022-10-20T18:09:52.485Z,100621.88
2022-10-20T18:11:27.322Z,100633.06
2022-10-20T18:12:59.589Z,100629.63
2022-10-20T18:14:31.605Z,100635.69
2022-10-20T18:16:08.371Z,100635.69
2022-10-20T18:17:40.692Z,100634.84
2022-10-20T18:19:18.892Z,100639.13
2022-10-20T18:20:55.995Z,100635.72
2022-10-20T18:22:28.092Z,100634.88
2022-10-20T18:24:03.866Z,100638.28
2022-10-20T18:25:36.333Z,100634.00
2022-10-20T18:27:08.663Z,100640.03
2022-10-20T18:28:43.194Z,100641.75
2022-10-20T18:30:17.961Z,100639.16
2022-10-20T18:31:51.619Z,100642.63
2022-10-20T18:33:23.612Z,100640.91
2022-10-20T18:34:55.686Z,100636.59
2022-10-20T18:36:28.253Z,100641.78
2022-10-20T18:38:00.300Z,100648.66
2022-10-20T18:39:32.438Z,100655.53
2022-10-20T18:41:09.488Z,100646.91
2022-10-20T18:42:41.482Z,100658.16
2022-10-20T18:44:18.598Z,100651.25
2022-10-20T18:45:52.040Z,100665.91
2022-10-20T18:47:24.125Z,100651.28
2022-10-20T18:48:56.765Z,100659.00
2022-10-20T18:50:28.945Z,100663.31
2022-10-20T18:52:01.031Z,100665.91
2022-10-20T18:53:34.631Z,100671.06
2022-10-20T18:55:08.553Z,100667.63
2022-10-20T18:56:41.248Z,100672.81
2022-10-20T18:58:13.264Z,100674.53
2022-10-20T18:59:45.465Z,100669.34
2022-10-20T19:01:20.206Z,100671.91
2022-10-20T19:02:55.763Z,100677.97
2022-10-20T19:04:29.997Z,100671.94
2022-10-20T19:06:10.450Z,100676.25
2022-10-20T19:07:42.815Z,100676.22
2022-10-20T19:09:17.939Z,100679.66
2022-10-20T19:10:50.038Z,100678.81
2022-10-20T19:12:22.184Z,100677.09
2022-10-20T19:13:54.893Z,100684.81
2022-10-20T19:15:27.249Z,100693.41
2022-10-20T19:16:59.650Z,100695.97
2022-10-20T19:18:31.933Z,100695.97
2022-10-20T19:20:05.051Z,100700.25
2022-10-20T19:21:37.695Z,100695.97
2022-10-20T19:23:09.949Z,100700.28
2022-10-20T19:24:42.192Z,100688.22
2022-10-20T19:26:21.060Z,100699.38
2022-10-20T19:27:53.173Z,100696.81
2022-10-20T19:29:25.283Z,100693.34
2022-10-20T19:30:57.775Z,100701.91
2022-10-20T19:32:29.833Z,100707.97
2022-10-20T19:34:09.741Z,100709.69
2022-10-20T19:35:41.996Z,100712.25
2022-10-20T19:37:14.273Z,100707.13
2022-10-20T19:38:47.137Z,100714.00
2022-10-20T19:40:19.270Z,100720.06
2022-10-20T19:41:51.861Z,100728.66
2022-10-20T19:43:24.150Z,100732.97
2022-10-20T19:44:56.155Z,100739.00
2022-10-20T19:46:28.395Z,100727.81
2022-10-20T19:49:38.024Z,100739.88
2022-10-20T19:51:10.426Z,100739.84
2022-10-20T19:52:42.566Z,100745.00
2022-10-20T19:54:15.203Z,100745.81
2022-10-20T19:55:50.832Z,100736.31
2022-10-20T19:57:22.866Z,100751.81
2022-10-20T19:58:55.040Z,100749.19
2022-10-20T20:00:27.192Z,100747.44
2022-10-20T20:01:59.431Z,100750.06
2022-10-20T20:03:31.777Z,100756.97
2022-10-20T20:05:06.867Z,100757.81
2022-10-20T20:06:39.050Z,100756.94
2022-10-20T20:08:11.390Z,100763.81
2022-10-20T20:09:44.671Z,100762.09
2022-10-20T20:11:26.638Z,100762.09
2022-10-20T20:12:58.755Z,100763.84
2022-10-20T20:14:30.834Z,100761.28
2022-10-20T20:16:07.554Z,100764.72
2022-10-20T20:17:39.842Z,100773.28
2022-10-20T20:19:12.988Z,100767.28
2022-10-20T20:20:46.657Z,100769.84
2022-10-20T20:22:18.691Z,100767.28
2022-10-20T20:24:01.882Z,100769.84
2022-10-20T20:25:42.078Z,100775.84
2022-10-20T20:27:14.279Z,100768.06
2022-10-20T20:28:46.296Z,100768.03
2022-10-20T20:30:18.363Z,100767.16
2022-10-20T20:31:50.575Z,100770.59
2022-10-20T20:33:22.551Z,100776.63
2022-10-20T20:34:54.638Z,100770.59
2022-10-20T20:36:27.565Z,100772.28
2022-10-20T20:37:59.929Z,100776.53
2022-10-20T20:39:31.920Z,100773.91
2022-10-20T20:41:06.679Z,100778.19
2022-10-20T20:42:38.650Z,100775.56
2022-10-20T20:44:10.937Z,100780.69
2022-10-20T20:45:44.382Z,100784.94
2022-10-20T20:47:16.612Z,100781.47
2022-10-20T20:48:49.520Z,100787.44
2022-10-20T20:50:21.654Z,100789.09
2022-10-20T20:51:53.747Z,100781.31
2022-10-20T20:53:25.835Z,100789.03
2022-10-20T20:54:57.871Z,100784.69
2022-10-20T20:56:30.409Z,100789.84
2022-10-20T20:58:02.410Z,100794.13